sensor_id;sensor_type;location;lat;lon;timestamp;temperature;humidity
4962;DHT22;2496;52.468;13.342;2023-07-31T00:01:12;16.50;99.90
4962;DHT22;2496;52.468;13.342;2023-07-31T00:03:39;16.50;99.90
4962;DHT22;2496;52.468;13.342;2023-07-31T00:06:06;16.50;99.90
4962;DHT22;2496;52.468;13.342;2023-07-31T00:08:34;16.40;99.90
4962;DHT22;2496;52.468;13.342;2023-07-31T00:11:01;16.40;99.90
4962;DHT22;2496;52.468;13.342;2023-07-31T00:13:28;16.30;99.90
4962;DHT22;2496;52.468;13.342;2023-07-31T00:15:55;16.30;99.90
4962;DHT22;2496;52.468;13.342;2023-07-31T00:18:22;16.40;99.90
4962;DHT22;2496;52.468;13.342;2023-07-31T00:20:49;16.40;99.90
4962;DHT22;2496;52.468;13.342;2023-07-31T00:23:16;16.40;99.90
4962;DHT22;2496;52.468;13.342;2023-07-31T00:25:44;16.40;99.90
4962;DHT22;2496;52.468;13.342;2023-07-31T00:28:11;16.30;99.90
4962;DHT22;2496;52.468;13.342;2023-07-31T00:30:38;16.30;99.90
4962;DHT22;2496;52.468;13.342;2023-07-31T00:33:06;16.30;99.90
4962;DHT22;2496;52.468;13.342;2023-07-31T00:35:33;16.30;99.90
4962;DHT22;2496;52.468;13.342;2023-07-31T00:38:00;16.20;99.90
4962;DHT22;2496;52.468;13.342;2023-07-31T00:40:27;16.20;99.90
4962;DHT22;2496;52.468;13.342;2023-07-31T00:42:55;16.20;99.90
4962;DHT22;2496;52.468;13.342;2023-07-31T00:45:23;16.20;99.90
4962;DHT22;2496;52.468;13.342;2023-07-31T00:47:52;16.20;99.90
4962;DHT22;2496;52.468;13.342;2023-07-31T00:50:19;16.20;99.90
4962;DHT22;2496;52.468;13.342;2023-07-31T00:52:46;16.30;99.90
4962;DHT22;2496;52.468;13.342;2023-07-31T00:55:13;16.30;99.90
4962;DHT22;2496;52.468;13.342;2023-07-31T00:57:41;16.30;99.90
4962;DHT22;2496;52.468;13.342;2023-07-31T01:00:11;16.40;99.90
4962;DHT22;2496;52.468;13.342;2023-07-31T01:02:38;16.40;99.90
4962;DHT22;2496;52.468;13.342;2023-07-31T01:05:05;16.40;99.90
4962;DHT22;2496;52.468;13.342;2023-07-31T01:07:38;16.50;99.90
4962;DHT22;2496;52.468;13.342;2023-07-31T01:10:13;16.40;99.90
4962;DHT22;2496;52.468;13.342;2023-07-31T01:12:43;16.40;99.90
4962;DHT22;2496;52.468;13.342;2023-07-31T01:15:13;16.40;99.90
4962;DHT22;2496;52.468;13.342;2023-07-31T01:17:43;16.40;99.90
4962;DHT22;2496;52.468;13.342;2023-07-31T01:20:12;16.40;99.90
4962;DHT22;2496;52.468;13.342;2023-07-31T01:22:59;16.40;99.90
4962;DHT22;2496;52.468;13.342;2023-07-31T01:25:56;16.30;99.90
4962;DHT22;2496;52.468;13.342;2023-07-31T01:28:29;16.30;99.90
4962;DHT22;2496;52.468;13.342;2023-07-31T01:31:00;16.30;99.90
4962;DHT22;2496;52.468;13.342;2023-07-31T01:33:29;16.30;99.90
4962;DHT22;2496;52.468;13.342;2023-07-31T01:35:57;16.30;99.90
4962;DHT22;2496;52.468;13.342;2023-07-31T01:38:24;16.30;99.90
4962;DHT22;2496;52.468;13.342;2023-07-31T01:40:51;16.40;99.90
4962;DHT22;2496;52.468;13.342;2023-07-31T01:43:20;16.40;99.90
4962;DHT22;2496;52.468;13.342;2023-07-31T01:45:47;16.40;99.90
4962;DHT22;2496;52.468;13.342;2023-07-31T01:48:14;16.40;99.90
4962;DHT22;2496;52.468;13.342;2023-07-31T01:50:41;16.40;99.90
4962;DHT22;2496;52.468;13.342;2023-07-31T01:53:08;16.40;99.90
4962;DHT22;2496;52.468;13.342;2023-07-31T01:55:35;16.30;99.90
4962;DHT22;2496;52.468;13.342;2023-07-31T01:58:02;16.30;99.90
4962;DHT22;2496;52.468;13.342;2023-07-31T02:00:30;16.30;99.90
4962;DHT22;2496;52.468;13.342;2023-07-31T02:02:56;16.30;99.90
4962;DHT22;2496;52.468;13.342;2023-07-31T02:05:23;16.40;99.90
4962;DHT22;2496;52.468;13.342;2023-07-31T02:07:50;16.40;99.90
4962;DHT22;2496;52.468;13.342;2023-07-31T02:10:17;16.40;99.90
4962;DHT22;2496;52.468;13.342;2023-07-31T02:12:44;16.40;99.90
4962;DHT22;2496;52.468;13.342;2023-07-31T02:15:11;16.40;99.90
4962;DHT22;2496;52.468;13.342;2023-07-31T02:17:39;16.40;99.90
4962;DHT22;2496;52.468;13.342;2023-07-31T02:20:07;16.40;99.90
4962;DHT22;2496;52.468;13.342;2023-07-31T02:22:34;16.40;99.90
4962;DHT22;2496;52.468;13.342;2023-07-31T02:25:01;16.30;99.90
4962;DHT22;2496;52.468;13.342;2023-07-31T02:27:28;16.30;99.90
4962;DHT22;2496;52.468;13.342;2023-07-31T02:29:55;16.30;99.90
4962;DHT22;2496;52.468;13.342;2023-07-31T02:32:24;16.30;99.90
4962;DHT22;2496;52.468;13.342;2023-07-31T02:34:53;16.30;99.90
4962;DHT22;2496;52.468;13.342;2023-07-31T02:37:20;16.30;99.90
4962;DHT22;2496;52.468;13.342;2023-07-31T02:39:47;16.40;99.90
4962;DHT22;2496;52.468;13.342;2023-07-31T02:42:14;16.40;99.90
4962;DHT22;2496;52.468;13.342;2023-07-31T02:44:41;16.40;99.90
4962;DHT22;2496;52.468;13.342;2023-07-31T02:47:08;16.40;99.90
4962;DHT22;2496;52.468;13.342;2023-07-31T02:49:35;16.40;99.90
4962;DHT22;2496;52.468;13.342;2023-07-31T02:52:04;16.40;99.90
4962;DHT22;2496;52.468;13.342;2023-07-31T02:54:32;16.40;99.90
4962;DHT22;2496;52.468;13.342;2023-07-31T02:56:59;16.40;99.90
4962;DHT22;2496;52.468;13.342;2023-07-31T02:59:28;16.40;99.90
4962;DHT22;2496;52.468;13.342;2023-07-31T03:01:55;16.40;99.90
4962;DHT22;2496;52.468;13.342;2023-07-31T03:04:22;16.40;99.90
4962;DHT22;2496;52.468;13.342;2023-07-31T03:06:49;16.40;99.90
4962;DHT22;2496;52.468;13.342;2023-07-31T03:09:20;16.40;99.90
4962;DHT22;2496;52.468;13.342;2023-07-31T03:11:47;16.40;99.90
4962;DHT22;2496;52.468;13.342;2023-07-31T03:14:15;16.40;99.90
4962;DHT22;2496;52.468;13.342;2023-07-31T03:16:42;16.40;99.90
4962;DHT22;2496;52.468;13.342;2023-07-31T03:19:09;16.30;99.90
4962;DHT22;2496;52.468;13.342;2023-07-31T03:21:37;16.30;99.90
4962;DHT22;2496;52.468;13.342;2023-07-31T03:24:04;16.30;99.90
4962;DHT22;2496;52.468;13.342;2023-07-31T03:26:33;16.30;99.90
4962;DHT22;2496;52.468;13.342;2023-07-31T03:29:00;16.30;99.90
4962;DHT22;2496;52.468;13.342;2023-07-31T03:31:28;16.30;99.90
4962;DHT22;2496;52.468;13.342;2023-07-31T03:33:55;16.30;99.90
4962;DHT22;2496;52.468;13.342;2023-07-31T03:36:23;16.30;99.90
4962;DHT22;2496;52.468;13.342;2023-07-31T03:38:51;16.30;99.90
4962;DHT22;2496;52.468;13.342;2023-07-31T03:41:18;16.20;99.90
4962;DHT22;2496;52.468;13.342;2023-07-31T03:43:51;16.20;99.90
4962;DHT22;2496;52.468;13.342;2023-07-31T03:46:19;16.20;99.90
4962;DHT22;2496;52.468;13.342;2023-07-31T03:48:46;16.30;99.90
4962;DHT22;2496;52.468;13.342;2023-07-31T03:51:14;16.30;99.90
4962;DHT22;2496;52.468;13.342;2023-07-31T03:53:44;16.30;99.90
4962;DHT22;2496;52.468;13.342;2023-07-31T03:56:11;16.30;99.90
4962;DHT22;2496;52.468;13.342;2023-07-31T03:58:38;16.30;99.90
4962;DHT22;2496;52.468;13.342;2023-07-31T04:01:07;16.40;99.90
4962;DHT22;2496;52.468;13.342;2023-07-31T04:03:34;16.40;99.90
4962;DHT22;2496;52.468;13.342;2023-07-31T04:06:02;16.40;99.90
4962;DHT22;2496;52.468;13.342;2023-07-31T04:08:29;16.30;99.90
4962;DHT22;2496;52.468;13.342;2023-07-31T04:10:56;16.30;99.90
4962;DHT22;2496;52.468;13.342;2023-07-31T04:13:23;16.30;99.90
4962;DHT22;2496;52.468;13.342;2023-07-31T04:15:50;16.30;99.90
4962;DHT22;2496;52.468;13.342;2023-07-31T04:18:19;16.30;99.90
4962;DHT22;2496;52.468;13.342;2023-07-31T04:20:46;16.30;99.90
4962;DHT22;2496;52.468;13.342;2023-07-31T04:23:13;16.30;99.90
4962;DHT22;2496;52.468;13.342;2023-07-31T04:25:40;16.40;99.90
4962;DHT22;2496;52.468;13.342;2023-07-31T04:28:07;16.40;99.90
4962;DHT22;2496;52.468;13.342;2023-07-31T04:30:34;16.40;99.90
4962;DHT22;2496;52.468;13.342;2023-07-31T04:33:02;16.40;99.90
4962;DHT22;2496;52.468;13.342;2023-07-31T04:35:31;16.40;99.90
4962;DHT22;2496;52.468;13.342;2023-07-31T04:37:58;16.40;99.90
4962;DHT22;2496;52.468;13.342;2023-07-31T04:40:25;16.40;99.90
4962;DHT22;2496;52.468;13.342;2023-07-31T04:42:52;16.50;99.90
4962;DHT22;2496;52.468;13.342;2023-07-31T04:45:19;16.40;99.90
4962;DHT22;2496;52.468;13.342;2023-07-31T04:47:46;16.50;99.90
4962;DHT22;2496;52.468;13.342;2023-07-31T04:50:13;16.50;99.90
4962;DHT22;2496;52.468;13.342;2023-07-31T04:52:42;16.50;99.90
4962;DHT22;2496;52.468;13.342;2023-07-31T04:55:10;16.50;99.90
4962;DHT22;2496;52.468;13.342;2023-07-31T04:57:37;16.40;99.90
4962;DHT22;2496;52.468;13.342;2023-07-31T05:00:04;16.50;99.90
4962;DHT22;2496;52.468;13.342;2023-07-31T05:02:32;16.50;99.90
4962;DHT22;2496;52.468;13.342;2023-07-31T05:04:59;16.50;99.90
4962;DHT22;2496;52.468;13.342;2023-07-31T05:07:26;16.40;99.90
4962;DHT22;2496;52.468;13.342;2023-07-31T05:09:55;16.50;99.90
4962;DHT22;2496;52.468;13.342;2023-07-31T05:12:22;16.40;99.90
4962;DHT22;2496;52.468;13.342;2023-07-31T05:14:49;16.50;99.90
4962;DHT22;2496;52.468;13.342;2023-07-31T05:17:16;16.50;99.90
4962;DHT22;2496;52.468;13.342;2023-07-31T05:19:44;16.50;99.90
4962;DHT22;2496;52.468;13.342;2023-07-31T05:22:11;16.50;99.90
4962;DHT22;2496;52.468;13.342;2023-07-31T05:24:38;16.60;99.90
4962;DHT22;2496;52.468;13.342;2023-07-31T05:27:07;16.50;99.90
4962;DHT22;2496;52.468;13.342;2023-07-31T05:29:35;16.60;99.90
4962;DHT22;2496;52.468;13.342;2023-07-31T05:32:03;16.60;99.90
4962;DHT22;2496;52.468;13.342;2023-07-31T05:34:31;16.60;99.90
4962;DHT22;2496;52.468;13.342;2023-07-31T05:36:58;16.60;99.90
4962;DHT22;2496;52.468;13.342;2023-07-31T05:39:25;16.70;99.90
4962;DHT22;2496;52.468;13.342;2023-07-31T05:41:53;16.70;99.90
4962;DHT22;2496;52.468;13.342;2023-07-31T05:44:22;16.70;99.90
4962;DHT22;2496;52.468;13.342;2023-07-31T05:46:49;16.70;99.90
4962;DHT22;2496;52.468;13.342;2023-07-31T05:49:16;16.70;99.90
4962;DHT22;2496;52.468;13.342;2023-07-31T05:51:43;16.70;99.90
4962;DHT22;2496;52.468;13.342;2023-07-31T05:54:10;16.70;99.90
4962;DHT22;2496;52.468;13.342;2023-07-31T05:56:37;16.80;99.90
4962;DHT22;2496;52.468;13.342;2023-07-31T05:59:04;16.80;99.90
4962;DHT22;2496;52.468;13.342;2023-07-31T06:01:33;16.80;99.90
4962;DHT22;2496;52.468;13.342;2023-07-31T06:04:00;16.80;99.90
4962;DHT22;2496;52.468;13.342;2023-07-31T06:06:28;16.90;99.90
4962;DHT22;2496;52.468;13.342;2023-07-31T06:08:55;16.80;99.90
4962;DHT22;2496;52.468;13.342;2023-07-31T06:11:22;16.90;99.90
4962;DHT22;2496;52.468;13.342;2023-07-31T06:13:49;16.90;99.90
4962;DHT22;2496;52.468;13.342;2023-07-31T06:16:16;16.90;99.90
4962;DHT22;2496;52.468;13.342;2023-07-31T06:18:44;16.90;99.90
4962;DHT22;2496;52.468;13.342;2023-07-31T06:21:11;16.90;99.90
4962;DHT22;2496;52.468;13.342;2023-07-31T06:23:38;16.90;99.90
4962;DHT22;2496;52.468;13.342;2023-07-31T06:26:05;16.90;99.90
4962;DHT22;2496;52.468;13.342;2023-07-31T06:28:32;16.90;99.90
4962;DHT22;2496;52.468;13.342;2023-07-31T06:30:59;16.90;99.90
4962;DHT22;2496;52.468;13.342;2023-07-31T06:33:26;17.00;99.90
4962;DHT22;2496;52.468;13.342;2023-07-31T06:35:55;17.00;99.90
4962;DHT22;2496;52.468;13.342;2023-07-31T06:38:24;17.00;99.90
4962;DHT22;2496;52.468;13.342;2023-07-31T06:40:51;17.10;99.90
4962;DHT22;2496;52.468;13.342;2023-07-31T06:43:18;17.10;99.90
4962;DHT22;2496;52.468;13.342;2023-07-31T06:45:45;17.20;99.90
4962;DHT22;2496;52.468;13.342;2023-07-31T06:48:15;17.20;99.90
4962;DHT22;2496;52.468;13.342;2023-07-31T06:50:42;17.20;99.90
4962;DHT22;2496;52.468;13.342;2023-07-31T06:53:11;17.30;99.90
4962;DHT22;2496;52.468;13.342;2023-07-31T06:55:38;17.30;99.90
4962;DHT22;2496;52.468;13.342;2023-07-31T06:58:05;17.30;99.90
4962;DHT22;2496;52.468;13.342;2023-07-31T07:00:32;17.30;99.90
4962;DHT22;2496;52.468;13.342;2023-07-31T07:02:59;17.40;99.90
4962;DHT22;2496;52.468;13.342;2023-07-31T07:05:26;17.40;99.90
4962;DHT22;2496;52.468;13.342;2023-07-31T07:07:53;17.40;99.90
4962;DHT22;2496;52.468;13.342;2023-07-31T07:10:22;17.40;99.90
4962;DHT22;2496;52.468;13.342;2023-07-31T07:12:49;17.40;99.90
4962;DHT22;2496;52.468;13.342;2023-07-31T07:15:16;17.40;99.90
4962;DHT22;2496;52.468;13.342;2023-07-31T07:17:43;17.40;99.90
4962;DHT22;2496;52.468;13.342;2023-07-31T07:20:10;17.30;99.90
4962;DHT22;2496;52.468;13.342;2023-07-31T07:22:37;17.30;99.90
4962;DHT22;2496;52.468;13.342;2023-07-31T07:25:06;17.30;99.90
4962;DHT22;2496;52.468;13.342;2023-07-31T07:27:35;17.40;99.90
4962;DHT22;2496;52.468;13.342;2023-07-31T07:30:02;17.40;99.90
4962;DHT22;2496;52.468;13.342;2023-07-31T07:32:29;17.40;99.90
4962;DHT22;2496;52.468;13.342;2023-07-31T07:34:56;17.50;99.90
4962;DHT22;2496;52.468;13.342;2023-07-31T07:37:23;17.50;99.90
4962;DHT22;2496;52.468;13.342;2023-07-31T07:39:50;17.60;99.90
4962;DHT22;2496;52.468;13.342;2023-07-31T07:42:17;17.60;99.90
4962;DHT22;2496;52.468;13.342;2023-07-31T07:44:45;17.60;99.90
4962;DHT22;2496;52.468;13.342;2023-07-31T07:47:13;17.70;99.90
4962;DHT22;2496;52.468;13.342;2023-07-31T07:49:40;17.80;99.90
4962;DHT22;2496;52.468;13.342;2023-07-31T07:52:07;17.80;99.90
4962;DHT22;2496;52.468;13.342;2023-07-31T07:54:34;17.80;99.90
4962;DHT22;2496;52.468;13.342;2023-07-31T07:57:01;17.80;99.90
4962;DHT22;2496;52.468;13.342;2023-07-31T07:59:28;17.80;99.90
4962;DHT22;2496;52.468;13.342;2023-07-31T08:01:57;17.80;99.90
4962;DHT22;2496;52.468;13.342;2023-07-31T08:04:24;17.70;99.90
4962;DHT22;2496;52.468;13.342;2023-07-31T08:06:51;17.70;99.90
4962;DHT22;2496;52.468;13.342;2023-07-31T08:09:18;17.70;99.90
4962;DHT22;2496;52.468;13.342;2023-07-31T08:11:45;17.70;99.90
4962;DHT22;2496;52.468;13.342;2023-07-31T08:14:12;17.70;99.90
4962;DHT22;2496;52.468;13.342;2023-07-31T08:16:39;17.70;99.90
4962;DHT22;2496;52.468;13.342;2023-07-31T08:19:07;17.70;99.90
4962;DHT22;2496;52.468;13.342;2023-07-31T08:21:34;17.70;99.90
4962;DHT22;2496;52.468;13.342;2023-07-31T08:24:01;17.70;99.90
4962;DHT22;2496;52.468;13.342;2023-07-31T08:26:28;17.70;99.90
4962;DHT22;2496;52.468;13.342;2023-07-31T08:28:55;17.70;99.90
4962;DHT22;2496;52.468;13.342;2023-07-31T08:31:23;17.70;99.90
4962;DHT22;2496;52.468;13.342;2023-07-31T08:33:50;17.80;99.90
4962;DHT22;2496;52.468;13.342;2023-07-31T08:36:18;17.90;99.90
4962;DHT22;2496;52.468;13.342;2023-07-31T08:38:45;17.90;99.90
4962;DHT22;2496;52.468;13.342;2023-07-31T08:41:15;17.90;99.90
4962;DHT22;2496;52.468;13.342;2023-07-31T08:43:44;17.90;99.90
4962;DHT22;2496;52.468;13.342;2023-07-31T08:46:12;17.90;99.90
4962;DHT22;2496;52.468;13.342;2023-07-31T08:48:41;17.90;99.90
4962;DHT22;2496;52.468;13.342;2023-07-31T08:51:09;17.90;99.90
4962;DHT22;2496;52.468;13.342;2023-07-31T08:53:38;17.90;99.90
4962;DHT22;2496;52.468;13.342;2023-07-31T08:56:06;17.90;99.90
4962;DHT22;2496;52.468;13.342;2023-07-31T08:58:35;17.90;99.90
4962;DHT22;2496;52.468;13.342;2023-07-31T09:01:04;17.90;99.90
4962;DHT22;2496;52.468;13.342;2023-07-31T09:03:34;17.90;99.90
4962;DHT22;2496;52.468;13.342;2023-07-31T09:06:02;18.00;99.90
4962;DHT22;2496;52.468;13.342;2023-07-31T09:08:32;18.00;99.90
4962;DHT22;2496;52.468;13.342;2023-07-31T09:11:02;18.10;99.90
4962;DHT22;2496;52.468;13.342;2023-07-31T09:13:30;18.10;99.90
4962;DHT22;2496;52.468;13.342;2023-07-31T09:15:57;18.10;99.90
4962;DHT22;2496;52.468;13.342;2023-07-31T09:18:24;18.10;99.90
4962;DHT22;2496;52.468;13.342;2023-07-31T09:21:01;18.10;99.90
4962;DHT22;2496;52.468;13.342;2023-07-31T09:23:40;18.20;99.90
4962;DHT22;2496;52.468;13.342;2023-07-31T09:26:09;18.20;99.90
4962;DHT22;2496;52.468;13.342;2023-07-31T09:28:36;18.20;99.90
4962;DHT22;2496;52.468;13.342;2023-07-31T09:31:03;18.10;99.90
4962;DHT22;2496;52.468;13.342;2023-07-31T09:33:30;18.10;99.90
4962;DHT22;2496;52.468;13.342;2023-07-31T09:35:59;18.00;99.90
4962;DHT22;2496;52.468;13.342;2023-07-31T09:38:27;17.90;99.90
4962;DHT22;2496;52.468;13.342;2023-07-31T09:40:54;17.90;99.90
4962;DHT22;2496;52.468;13.342;2023-07-31T09:43:23;17.90;99.90
4962;DHT22;2496;52.468;13.342;2023-07-31T09:45:55;17.90;99.90
4962;DHT22;2496;52.468;13.342;2023-07-31T09:48:23;17.90;99.90
4962;DHT22;2496;52.468;13.342;2023-07-31T09:50:53;17.80;99.90
4962;DHT22;2496;52.468;13.342;2023-07-31T09:53:28;17.80;99.90
4962;DHT22;2496;52.468;13.342;2023-07-31T09:55:58;17.80;99.90
4962;DHT22;2496;52.468;13.342;2023-07-31T09:58:28;17.80;99.90
4962;DHT22;2496;52.468;13.342;2023-07-31T10:00:57;17.80;99.90
4962;DHT22;2496;52.468;13.342;2023-07-31T10:03:25;17.80;99.90
4962;DHT22;2496;52.468;13.342;2023-07-31T10:05:53;17.90;99.90
4962;DHT22;2496;52.468;13.342;2023-07-31T10:08:27;17.90;99.90
4962;DHT22;2496;52.468;13.342;2023-07-31T10:10:58;18.00;99.90
4962;DHT22;2496;52.468;13.342;2023-07-31T10:13:28;18.00;99.90
4962;DHT22;2496;52.468;13.342;2023-07-31T10:15:58;18.10;99.90
4962;DHT22;2496;52.468;13.342;2023-07-31T10:18:26;18.20;99.90
4962;DHT22;2496;52.468;13.342;2023-07-31T10:20:54;18.20;99.90
4962;DHT22;2496;52.468;13.342;2023-07-31T10:23:22;18.20;99.90
4962;DHT22;2496;52.468;13.342;2023-07-31T10:25:51;18.20;99.90
4962;DHT22;2496;52.468;13.342;2023-07-31T10:28:20;18.10;99.90
4962;DHT22;2496;52.468;13.342;2023-07-31T10:30:49;18.20;99.90
4962;DHT22;2496;52.468;13.342;2023-07-31T10:33:17;18.20;99.90
4962;DHT22;2496;52.468;13.342;2023-07-31T10:35:47;18.40;99.90
4962;DHT22;2496;52.468;13.342;2023-07-31T10:38:14;18.50;99.90
4962;DHT22;2496;52.468;13.342;2023-07-31T10:40:41;18.60;99.90
4962;DHT22;2496;52.468;13.342;2023-07-31T10:43:08;18.80;99.90
4962;DHT22;2496;52.468;13.342;2023-07-31T10:45:37;18.90;99.90
4962;DHT22;2496;52.468;13.342;2023-07-31T10:48:12;19.20;99.90
4962;DHT22;2496;52.468;13.342;2023-07-31T10:50:46;19.40;99.90
4962;DHT22;2496;52.468;13.342;2023-07-31T10:53:23;19.60;99.90
4962;DHT22;2496;52.468;13.342;2023-07-31T10:55:50;19.90;99.90
4962;DHT22;2496;52.468;13.342;2023-07-31T10:58:19;20.00;99.90
4962;DHT22;2496;52.468;13.342;2023-07-31T11:00:47;20.20;99.90
4962;DHT22;2496;52.468;13.342;2023-07-31T11:03:16;20.30;99.90
4962;DHT22;2496;52.468;13.342;2023-07-31T11:05:48;20.50;99.90
4962;DHT22;2496;52.468;13.342;2023-07-31T11:08:17;20.80;99.90
4962;DHT22;2496;52.468;13.342;2023-07-31T11:10:46;20.90;99.90
4962;DHT22;2496;52.468;13.342;2023-07-31T11:13:13;21.00;99.90
4962;DHT22;2496;52.468;13.342;2023-07-31T11:15:40;20.90;99.90
4962;DHT22;2496;52.468;13.342;2023-07-31T11:18:07;20.80;99.90
4962;DHT22;2496;52.468;13.342;2023-07-31T11:20:38;20.80;99.90
4962;DHT22;2496;52.468;13.342;2023-07-31T11:23:10;20.80;99.90
4962;DHT22;2496;52.468;13.342;2023-07-31T11:25:38;20.80;99.90
4962;DHT22;2496;52.468;13.342;2023-07-31T11:28:09;20.80;99.90
4962;DHT22;2496;52.468;13.342;2023-07-31T11:30:36;20.80;99.90
4962;DHT22;2496;52.468;13.342;2023-07-31T11:33:05;20.80;99.90
4962;DHT22;2496;52.468;13.342;2023-07-31T11:35:33;20.70;99.90
4962;DHT22;2496;52.468;13.342;2023-07-31T11:38:02;20.70;99.90
4962;DHT22;2496;52.468;13.342;2023-07-31T11:40:29;20.70;99.90
4962;DHT22;2496;52.468;13.342;2023-07-31T11:42:57;20.70;99.90
4962;DHT22;2496;52.468;13.342;2023-07-31T11:45:27;20.70;99.90
4962;DHT22;2496;52.468;13.342;2023-07-31T11:47:55;20.80;99.90
4962;DHT22;2496;52.468;13.342;2023-07-31T11:50:23;20.70;99.90
4962;DHT22;2496;52.468;13.342;2023-07-31T11:52:54;20.70;99.90
4962;DHT22;2496;52.468;13.342;2023-07-31T11:55:25;20.60;99.90
4962;DHT22;2496;52.468;13.342;2023-07-31T11:57:55;20.50;99.90
4962;DHT22;2496;52.468;13.342;2023-07-31T12:00:23;20.50;99.90
4962;DHT22;2496;52.468;13.342;2023-07-31T12:02:50;20.40;99.90
4962;DHT22;2496;52.468;13.342;2023-07-31T12:05:18;20.40;99.90
4962;DHT22;2496;52.468;13.342;2023-07-31T12:07:49;20.30;99.90
4962;DHT22;2496;52.468;13.342;2023-07-31T12:10:26;20.40;99.90
4962;DHT22;2496;52.468;13.342;2023-07-31T12:13:00;20.40;99.90
4962;DHT22;2496;52.468;13.342;2023-07-31T12:15:38;20.50;99.90
4962;DHT22;2496;52.468;13.342;2023-07-31T12:18:06;20.50;99.90
4962;DHT22;2496;52.468;13.342;2023-07-31T12:20:34;20.50;99.90
4962;DHT22;2496;52.468;13.342;2023-07-31T12:23:02;20.50;99.90
4962;DHT22;2496;52.468;13.342;2023-07-31T12:25:31;20.50;99.90
4962;DHT22;2496;52.468;13.342;2023-07-31T12:28:04;20.50;99.90
4962;DHT22;2496;52.468;13.342;2023-07-31T12:30:33;20.60;99.90
4962;DHT22;2496;52.468;13.342;2023-07-31T12:33:04;20.60;99.90
4962;DHT22;2496;52.468;13.342;2023-07-31T12:35:42;20.70;99.90
4962;DHT22;2496;52.468;13.342;2023-07-31T12:38:09;20.80;99.90
4962;DHT22;2496;52.468;13.342;2023-07-31T12:40:39;20.80;99.90
4962;DHT22;2496;52.468;13.342;2023-07-31T12:43:07;20.90;99.90
4962;DHT22;2496;52.468;13.342;2023-07-31T12:45:34;21.00;99.90
4962;DHT22;2496;52.468;13.342;2023-07-31T12:48:02;21.00;99.90
4962;DHT22;2496;52.468;13.342;2023-07-31T12:50:29;21.00;99.90
4962;DHT22;2496;52.468;13.342;2023-07-31T12:52:56;20.90;99.90
4962;DHT22;2496;52.468;13.342;2023-07-31T12:55:24;20.90;99.90
4962;DHT22;2496;52.468;13.342;2023-07-31T12:57:52;20.80;99.90
4962;DHT22;2496;52.468;13.342;2023-07-31T13:00:19;20.80;99.90
4962;DHT22;2496;52.468;13.342;2023-07-31T13:02:46;20.80;99.90
4962;DHT22;2496;52.468;13.342;2023-07-31T13:05:13;20.80;99.90
4962;DHT22;2496;52.468;13.342;2023-07-31T13:07:40;20.80;99.90
4962;DHT22;2496;52.468;13.342;2023-07-31T13:10:08;20.80;99.90
4962;DHT22;2496;52.468;13.342;2023-07-31T13:12:35;20.80;99.90
4962;DHT22;2496;52.468;13.342;2023-07-31T13:15:04;20.90;99.90
4962;DHT22;2496;52.468;13.342;2023-07-31T13:17:32;20.80;99.90
4962;DHT22;2496;52.468;13.342;2023-07-31T13:19:59;20.80;99.90
4962;DHT22;2496;52.468;13.342;2023-07-31T13:22:26;20.80;99.90
4962;DHT22;2496;52.468;13.342;2023-07-31T13:24:53;20.80;99.90
4962;DHT22;2496;52.468;13.342;2023-07-31T13:27:20;20.70;99.90
4962;DHT22;2496;52.468;13.342;2023-07-31T13:29:47;20.80;99.90
4962;DHT22;2496;52.468;13.342;2023-07-31T13:32:17;20.80;99.90
4962;DHT22;2496;52.468;13.342;2023-07-31T13:34:45;20.80;99.90
4962;DHT22;2496;52.468;13.342;2023-07-31T13:37:12;21.00;99.90
4962;DHT22;2496;52.468;13.342;2023-07-31T13:39:39;21.10;99.90
4962;DHT22;2496;52.468;13.342;2023-07-31T13:42:07;21.30;99.90
4962;DHT22;2496;52.468;13.342;2023-07-31T13:44:37;21.40;99.90
4962;DHT22;2496;52.468;13.342;2023-07-31T13:47:04;21.50;99.90
4962;DHT22;2496;52.468;13.342;2023-07-31T13:49:33;21.50;99.90
4962;DHT22;2496;52.468;13.342;2023-07-31T13:52:00;21.60;99.90
4962;DHT22;2496;52.468;13.342;2023-07-31T13:54:27;21.70;99.90
4962;DHT22;2496;52.468;13.342;2023-07-31T13:56:54;21.60;99.90
4962;DHT22;2496;52.468;13.342;2023-07-31T13:59:21;21.60;99.90
4962;DHT22;2496;52.468;13.342;2023-07-31T14:01:48;21.50;99.90
4962;DHT22;2496;52.468;13.342;2023-07-31T14:04:17;21.50;99.90
4962;DHT22;2496;52.468;13.342;2023-07-31T14:06:46;21.50;99.90
4962;DHT22;2496;52.468;13.342;2023-07-31T14:09:16;21.50;99.90
4962;DHT22;2496;52.468;13.342;2023-07-31T14:11:43;21.40;99.90
4962;DHT22;2496;52.468;13.342;2023-07-31T14:14:10;21.50;99.90
4962;DHT22;2496;52.468;13.342;2023-07-31T14:16:38;21.50;99.90
4962;DHT22;2496;52.468;13.342;2023-07-31T14:19:05;21.50;99.90
4962;DHT22;2496;52.468;13.342;2023-07-31T14:21:33;21.50;99.90
4962;DHT22;2496;52.468;13.342;2023-07-31T14:24:01;21.40;99.90
4962;DHT22;2496;52.468;13.342;2023-07-31T14:26:28;21.30;99.90
4962;DHT22;2496;52.468;13.342;2023-07-31T14:28:55;21.30;99.90
4962;DHT22;2496;52.468;13.342;2023-07-31T14:31:22;21.20;99.90
4962;DHT22;2496;52.468;13.342;2023-07-31T14:33:49;21.20;99.90
4962;DHT22;2496;52.468;13.342;2023-07-31T14:36:16;21.30;99.90
4962;DHT22;2496;52.468;13.342;2023-07-31T14:38:43;21.30;99.90
4962;DHT22;2496;52.468;13.342;2023-07-31T14:41:11;21.30;99.90
4962;DHT22;2496;52.468;13.342;2023-07-31T14:43:38;21.40;99.90
4962;DHT22;2496;52.468;13.342;2023-07-31T14:46:05;21.30;99.90
4962;DHT22;2496;52.468;13.342;2023-07-31T14:48:32;21.40;99.90
4962;DHT22;2496;52.468;13.342;2023-07-31T14:51:00;21.40;99.90
4962;DHT22;2496;52.468;13.342;2023-07-31T14:53:27;21.40;99.90
4962;DHT22;2496;52.468;13.342;2023-07-31T14:55:54;21.40;99.90
4962;DHT22;2496;52.468;13.342;2023-07-31T14:58:22;21.30;99.90
4962;DHT22;2496;52.468;13.342;2023-07-31T15:00:49;21.30;99.90
4962;DHT22;2496;52.468;13.342;2023-07-31T15:03:16;21.20;99.90
4962;DHT22;2496;52.468;13.342;2023-07-31T15:05:43;21.10;99.90
4962;DHT22;2496;52.468;13.342;2023-07-31T15:08:10;21.10;99.90
4962;DHT22;2496;52.468;13.342;2023-07-31T15:10:37;21.10;99.90
4962;DHT22;2496;52.468;13.342;2023-07-31T15:13:04;21.00;99.90
4962;DHT22;2496;52.468;13.342;2023-07-31T15:15:33;21.10;99.90
4962;DHT22;2496;52.468;13.342;2023-07-31T15:18:00;21.10;99.90
4962;DHT22;2496;52.468;13.342;2023-07-31T15:20:27;21.10;99.90
4962;DHT22;2496;52.468;13.342;2023-07-31T15:22:55;21.00;99.90
4962;DHT22;2496;52.468;13.342;2023-07-31T15:25:22;21.10;99.90
4962;DHT22;2496;52.468;13.342;2023-07-31T15:27:49;21.10;99.90
4962;DHT22;2496;52.468;13.342;2023-07-31T15:30:16;21.10;99.90
4962;DHT22;2496;52.468;13.342;2023-07-31T15:32:44;21.10;99.90
4962;DHT22;2496;52.468;13.342;2023-07-31T15:35:14;21.00;99.90
4962;DHT22;2496;52.468;13.342;2023-07-31T15:37:41;21.00;99.90
4962;DHT22;2496;52.468;13.342;2023-07-31T15:40:08;20.90;99.90
4962;DHT22;2496;52.468;13.342;2023-07-31T15:42:35;20.90;99.90
4962;DHT22;2496;52.468;13.342;2023-07-31T15:45:06;20.90;99.90
4962;DHT22;2496;52.468;13.342;2023-07-31T15:47:33;20.90;99.90
4962;DHT22;2496;52.468;13.342;2023-07-31T15:50:02;20.90;99.90